Home > Products > Valid Products > TAF

000
FTUS42 KCAE 221400 AAA
TAFAGS
TAF AMD
KAGS 221447Z 2215/2312 36008G18KT P6SM SKC
     FM222300 35003KT P6SM SKC=



000
FTUS42 KCAE 221400 AAA
TAFDNL
TAF AMD
KDNL 221447Z 2215/2312 36008G18KT P6SM SKC
     FM222300 35003KT P6SM SKC=



000
FTUS42 KCAE 221400 AAA
TAFOGB
TAF AMD
KOGB 221447Z 2215/2312 35010G18KT P6SM SKC
     FM222300 35003KT P6SM SKC=



000
FTUS42 KCAE 221400 AAA
TAFCUB
TAF AMD
KCUB 221447Z 2215/2312 35008G18KT P6SM SKC
     FM222300 35003KT P6SM SKC=



000
FTUS42 KCAE 221400 AAA
TAFCAE
TAF AMD
KCAE 221447Z 2215/2312 35010G18KT P6SM SKC
     FM222300 35003KT P6SM SKC=



000
FTUS42 KCAE 221100
TAFCUB
TAF
KCUB 221136Z 2212/2312 34004KT P6SM SKC
     FM221400 33008G18KT P6SM SKC
     FM222300 33003KT P6SM SKC=



000
FTUS42 KCAE 221100
TAFCAE
TAF
KCAE 221136Z 2212/2312 33004KT P6SM SKC
     FM221400 34010G18KT P6SM SKC
     FM222300 33003KT P6SM SKC=



000
FTUS42 KCAE 221100
TAFOGB
TAF
KOGB 221136Z 2212/2312 34004KT P6SM SKC
     FM221400 33010G18KT P6SM SKC
     FM222300 33003KT P6SM SKC=



000
FTUS42 KCAE 221100
TAFAGS
TAF
KAGS 221136Z 2212/2312 34004KT P6SM SKC
     FM221400 34008G18KT P6SM SKC
     FM222300 33003KT P6SM SKC=



000
FTUS42 KCAE 221100
TAFDNL
TAF
KDNL 221136Z 2212/2312 35006KT P6SM SKC
     FM221400 34008G18KT P6SM SKC
     FM222300 33003KT P6SM SKC=



000
FTUS42 KCAE 220800 AAA
TAFDNL
TAF AMD
KDNL 220830Z 2209/2306 35006KT P6SM SKC
     FM221400 34008KT P6SM SKC=



000
FTUS42 KCAE 220800 AAA
TAFCAE
TAF AMD
KCAE 220830Z 2209/2306 34004KT P6SM SKC
     FM221400 34010KT P6SM SKC=



000
FTUS42 KCAE 220800 AAA
TAFOGB
TAF AMD
KOGB 220830Z 2209/2306 34004KT P6SM SKC
     FM221400 33010KT P6SM SKC=



000
FTUS42 KCAE 220800 AAA
TAFCUB
TAF AMD
KCUB 220830Z 2209/2306 34004KT P6SM SKC
     FM221400 33008KT P6SM SKC=



000
FTUS42 KCAE 220800 AAA
TAFAGS
TAF AMD
KAGS 220830Z 2209/2306 34004KT P6SM SKC
     FM221400 34008KT P6SM SKC=



000
FTUS42 KCAE 220500
TAFCUB
TAF
KCUB 220520Z 2206/2306 34004KT P6SM SKC
     FM221400 33008KT P6SM SKC=



000
FTUS42 KCAE 220500
TAFOGB
TAF
KOGB 220520Z 2206/2306 33004KT P6SM SKC
     FM221400 33010KT P6SM SKC=



000
FTUS42 KCAE 220500
TAFOGB
TAF
KOGB 220520Z 2206/2306 33004KT P6SM SKC
     FM221400 33010KT P6SM SKC=



000
FTUS42 KCAE 220500
TAFDNL
TAF
KDNL 220520Z 2206/2306 32006KT P6SM SKC
     FM221400 34008KT P6SM SKC=



000
FTUS42 KCAE 220500
TAFAGS
TAF
KAGS 220520Z 2206/2306 33004KT P6SM SKC
     FM221400 34008KT P6SM SKC=



000
FTUS42 KCAE 220500
TAFCAE
TAF
KCAE 220520Z 2206/2306 34004KT P6SM SKC
     FM221400 34010KT P6SM SKC=



000
FTUS42 KCAE 220500
TAFCUB
TAF
KCUB 220520Z 2206/2306 34004KT P6SM SKC
     FM221400 33008KT P6SM SKC=



000
FTUS42 KCAE 220500
TAFDNL
TAF
KDNL 220520Z 2206/2306 32006KT P6SM SKC
     FM221400 34008KT P6SM SKC=



000
FTUS42 KCAE 220500
TAFAGS
TAF
KAGS 220520Z 2206/2306 33004KT P6SM SKC
     FM221400 34008KT P6SM SKC=



000
FTUS42 KCAE 220500
TAFCAE
TAF
KCAE 220520Z 2206/2306 34004KT P6SM SKC
     FM221400 34010KT P6SM SKC=



000
FTUS42 KCAE 220200 AAA
TAFAGS
TAF AMD
KAGS 220234Z 2203/2224 32006KT P6SM SKC
     FM221400 35010KT P6SM SKC=



000
FTUS42 KCAE 220200 AAA
TAFCUB
TAF AMD
KCUB 220234Z 2203/2224 33005KT P6SM SKC
     FM221400 34010KT P6SM SKC=



000
FTUS42 KCAE 220200 AAA
TAFCAE
TAF AMD
KCAE 220234Z 2203/2224 34005KT P6SM SKC
     FM221400 34010KT P6SM SKC=



000
FTUS42 KCAE 220200 AAA
TAFDNL
TAF AMD
KDNL 220234Z 2203/2224 32006KT P6SM SKC
     FM221400 35010KT P6SM SKC=



000
FTUS42 KCAE 220200 AAA
TAFOGB
TAF AMD
KOGB 220234Z 2203/2224 32005KT P6SM SKC
     FM221400 34010KT P6SM SKC=



000
FTUS42 KCAE 212300
TAFAGS
TAF
KAGS 212332Z 2200/2224 32006KT P6SM SKC
     FM221400 35010KT P6SM SKC=



000
FTUS42 KCAE 212300
TAFOGB
TAF
KOGB 212332Z 2200/2224 31006KT P6SM SKC
     FM221400 34010KT P6SM SKC=



000
FTUS42 KCAE 212300
TAFCUB
TAF
KCUB 212332Z 2200/2224 32006KT P6SM SKC
     FM221400 34010KT P6SM SKC=



000
FTUS42 KCAE 212300
TAFDNL
TAF
KDNL 212332Z 2200/2224 31006KT P6SM SKC
     FM221400 35010KT P6SM SKC=



000
FTUS42 KCAE 212300
TAFCAE
TAF
KCAE 212332Z 2200/2224 32006KT P6SM SKC
     FM221400 34010KT P6SM SKC=



000
FTUS42 KCAE 212200 AAC
TAFDNL
TAF AMD
KDNL 212215Z 2122/2218 29006KT P6SM SKC
     FM220000 32005KT P6SM FEW050=



000
FTUS42 KCAE 212200 AAC
TAFDNL
TAF AMD
KDNL 212215Z 2122/2218 29006KT P6SM SKC
     FM220000 32005KT P6SM FEW050=



000
FTUS42 KCAE 212000 AAB
TAFDNL
TAF AMD
KDNL 212048Z 2121/2218 29009G20KT P6SM SKC
     FM220000 32005KT P6SM FEW050=



000
FTUS42 KCAE 212000 AAB
TAFAGS
TAF AMD
KAGS 212048Z 2121/2218 29009G20KT P6SM SKC
     FM220000 32005KT P6SM FEW050=



000
FTUS42 KCAE 212000 AAA
TAFCUB
TAF AMD
KCUB 212048Z 2121/2218 28009KT P6SM SKC
     FM220100 33005KT P6SM FEW050=



000
FTUS42 KCAE 212000 AAA
TAFCAE
TAF AMD
KCAE 212048Z 2121/2218 28010KT P6SM SKC
     FM220100 33007KT P6SM FEW050=



000
FTUS42 KCAE 212000 AAA
TAFOGB
TAF AMD
KOGB 212048Z 2121/2218 27010KT P6SM SKC
     FM220200 34007KT P6SM FEW050=



000
FTUS42 KCAE 211900 AAA
TAFDNL
TAF AMD
KDNL 211932Z 2120/2218 29009G20KT P6SM SKC
     FM220000 32005KT P6SM FEW050=



000
FTUS42 KCAE 211900 AAA
TAFAGS
TAF AMD
KAGS 211931Z 2120/2218 29009G20KT P6SM SKC
     FM220000 32005KT P6SM FEW050=



000
FTUS42 KCAE 211700
TAFCAE
TAF
KCAE 211723Z 2118/2218 28007KT P6SM SKC
     FM220200 33007KT P6SM FEW050=



000
FTUS42 KCAE 211700
TAFDNL
TAF
KDNL 211723Z 2118/2218 29007KT P6SM SKC
     FM220200 34007KT P6SM FEW050=



000
FTUS42 KCAE 211700
TAFOGB
TAF
KOGB 211723Z 2118/2218 27008KT P6SM SKC
     FM220200 34007KT P6SM FEW050=



000
FTUS42 KCAE 211700
TAFAGS
TAF
KAGS 211723Z 2118/2218 29008KT P6SM SKC
     FM220200 34005KT P6SM FEW050=



000
FTUS42 KCAE 211700
TAFCUB
TAF
KCUB 211723Z 2118/2218 28007KT P6SM SKC
     FM220200 33005KT P6SM FEW050=



000
FTUS42 KCAE 211100
TAFCAE
TAF
KCAE 211130Z 2112/2212 VRB03KT P6SM SKC
     FM211500 28007KT P6SM SKC
     FM220200 33007KT P6SM SKC=



000
FTUS42 KCAE 211100
TAFCUB
TAF
KCUB 211130Z 2112/2212 VRB03KT P6SM SKC
     FM211500 28007KT P6SM SKC
     FM220200 33005KT P6SM SKC=



000
FTUS42 KCAE 211100
TAFDNL
TAF
KDNL 211130Z 2112/2212 VRB03KT P6SM SKC
     FM211500 29007KT P6SM SKC
     FM220200 34007KT P6SM SKC=



000
FTUS42 KCAE 211100
TAFOGB
TAF
KOGB 211130Z 2112/2212 VRB03KT P6SM SKC
      TEMPO 2112/2113 4SM BR
     FM211500 27008KT P6SM SKC
     FM220200 34007KT P6SM SKC=



000
FTUS42 KCAE 211100
TAFAGS
TAF
KAGS 211130Z 2112/2212 VRB03KT P6SM SKC
     FM211500 29008KT P6SM SKC
     FM220200 34005KT P6SM SKC=



000
FTUS42 KCAE 211100
TAFCUB
TAF
KCUB 211130Z 2112/2212 VRB03KT P6SM SKC
     FM211500 28007KT P6SM SKC
     FM220200 33005KT P6SM SKC=



000
FTUS42 KCAE 211100
TAFOGB
TAF
KOGB 211130Z 2112/2212 VRB03KT P6SM SKC
      TEMPO 2112/2113 4SM BR
     FM211500 27008KT P6SM SKC
     FM220200 34007KT P6SM SKC=



000
FTUS42 KCAE 211100
TAFCAE
TAF
KCAE 211130Z 2112/2212 VRB03KT P6SM SKC
     FM211500 28007KT P6SM SKC
     FM220200 33007KT P6SM SKC=



000
FTUS42 KCAE 211100
TAFAGS
TAF
KAGS 211130Z 2112/2212 VRB03KT P6SM SKC
     FM211500 29008KT P6SM SKC
     FM220200 34005KT P6SM SKC=



000
FTUS42 KCAE 211100
TAFDNL
TAF
KDNL 211130Z 2112/2212 VRB03KT P6SM SKC
     FM211500 29007KT P6SM SKC
     FM220200 34007KT P6SM SKC=



000
FTUS42 KCAE 210800 AAA
TAFCUB
TAF AMD
KCUB 210831Z 2109/2206 VRB03KT P6SM SKC
     FM211500 28007KT P6SM SKC
     FM220200 33005KT P6SM SKC=



000
FTUS42 KCAE 210800 AAB
TAFOGB
TAF AMD
KOGB 210831Z 2109/2206 VRB03KT P6SM SKC
     FM211500 27008KT P6SM SKC
     FM220200 34007KT P6SM SKC=



000
FTUS42 KCAE 210800 AAA
TAFDNL
TAF AMD
KDNL 210831Z 2109/2206 VRB03KT P6SM SKC
     FM211500 29007KT P6SM SKC
     FM220200 34007KT P6SM SKC=



000
FTUS42 KCAE 210800 AAA
TAFCAE
TAF AMD
KCAE 210831Z 2109/2206 VRB03KT P6SM SKC
     FM211500 28007KT P6SM SKC
     FM220200 33007KT P6SM SKC=



000
FTUS42 KCAE 210800 AAA
TAFAGS
TAF AMD
KAGS 210831Z 2109/2206 VRB03KT P6SM SKC
     FM211500 29008KT P6SM SKC
     FM220200 34005KT P6SM SKC=



000
FTUS42 KCAE 210600 AAA
TAFOGB
TAF AMD
KOGB 210618Z 2106/2206 VRB03KT 3SM BR SCT250
      TEMPO 2109/2112 1SM BR
     FM211500 27008KT P6SM SKC=



000
FTUS42 KCAE 210500
TAFAGS
TAF
KAGS 210520Z 2106/2206 VRB03KT P6SM SCT100 SCT250
      TEMPO 2110/2113 3SM BR
     FM211500 29008KT P6SM SKC=



000
FTUS42 KCAE 210500
TAFCUB
TAF
KCUB 210520Z 2106/2206 VRB03KT P6SM SCT100 SCT250
     FM211500 28007KT P6SM SKC=



000
FTUS42 KCAE 210500
TAFDNL
TAF
KDNL 210520Z 2106/2206 VRB03KT P6SM SCT100 SCT250
     FM211500 29007KT P6SM SKC=



000
FTUS42 KCAE 210500
TAFCAE
TAF
KCAE 210520Z 2106/2206 VRB03KT P6SM SCT100 SCT250
     FM211500 28007KT P6SM SKC=



000
FTUS42 KCAE 210500
TAFOGB
TAF
KOGB 210520Z 2106/2206 VRB03KT P6SM SCT100 SCT250
     FM211500 27008KT P6SM SKC=



000
FTUS42 KCAE 202300
TAFCUB
TAF
KCUB 202326Z 2100/2124 VRB03KT P6SM SCT100 SCT250
     FM211500 28005KT P6SM SKC=



000
FTUS42 KCAE 202300
TAFAGS
TAF
KAGS 202326Z 2100/2124 VRB03KT P6SM SCT100 SCT250
      TEMPO 2110/2113 3SM BR
     FM211500 29005KT P6SM SKC=



000
FTUS42 KCAE 202300
TAFCAE
TAF
KCAE 202326Z 2100/2124 VRB03KT P6SM SCT100 SCT250
     FM211500 28005KT P6SM SKC=



000
FTUS42 KCAE 202300
TAFDNL
TAF
KDNL 202326Z 2100/2124 VRB03KT P6SM SCT100 SCT250
     FM211500 29006KT P6SM SKC=



000
FTUS42 KCAE 202300
TAFOGB
TAF
KOGB 202326Z 2100/2124 VRB03KT P6SM SCT100 SCT250
     FM211500 28005KT P6SM SKC=



000
FTUS42 KCAE 202000 AAA
TAFOGB
TAF AMD
KOGB 202022Z 2020/2118 19007KT P6SM SCT045 SCT250
     FM210000 VRB03KT P6SM SKC
     FM211500 28005KT P6SM SKC=



000
FTUS42 KCAE 202000 AAA
TAFAGS
TAF AMD
KAGS 202022Z 2020/2118 22006KT P6SM FEW250
     FM210000 VRB02KT P6SM SKC
      TEMPO 2110/2113 3SM BR
     FM211500 30004KT P6SM SKC=



000
FTUS42 KCAE 202000 AAA
TAFDNL
TAF AMD
KDNL 202022Z 2020/2118 22005KT P6SM FEW250
     FM210000 VRB03KT P6SM SKC
     FM211500 30006KT P6SM SKC=



000
FTUS42 KCAE 202000 AAA
TAFCUB
TAF AMD
KCUB 202022Z 2020/2118 21005KT P6SM FEW060 FEW250
     FM210000 VRB03KT P6SM SKC
     FM211500 28005KT P6SM SKC=



000
FTUS42 KCAE 202000 AAA
TAFCAE
TAF AMD
KCAE 202022Z 2020/2118 22007KT P6SM FEW060 FEW250
     FM210000 VRB03KT P6SM SKC
     FM211500 28005KT P6SM SKC=



000
FTUS42 KCAE 201700
TAFOGB
TAF
KOGB 201721Z 2018/2118 18005KT P6SM SCT035 SCT250
     FM210000 VRB03KT P6SM SKC
     FM211500 28005KT P6SM SKC=



000
FTUS42 KCAE 201700
TAFDNL
TAF
KDNL 201721Z 2018/2118 21004KT P6SM FEW250
     FM210000 VRB03KT P6SM SKC
     FM211500 30006KT P6SM SKC=



000
FTUS42 KCAE 201700
TAFAGS
TAF
KAGS 201721Z 2018/2118 21004KT P6SM FEW250
     FM210000 VRB02KT P6SM SKC
      TEMPO 2110/2113 3SM BR
     FM211500 30004KT P6SM SKC=



000
FTUS42 KCAE 201700
TAFCUB
TAF
KCUB 201721Z 2018/2118 21005KT P6SM FEW250
     FM210000 VRB03KT P6SM SKC
     FM211500 28005KT P6SM SKC=



000
FTUS42 KCAE 201700
TAFCAE
TAF
KCAE 201721Z 2018/2118 23005KT P6SM FEW250
     FM210000 VRB03KT P6SM SKC
     FM211500 28005KT P6SM SKC=



000
FTUS42 KCAE 201400 AAA
TAFCAE
TAF AMD
KCAE 201425Z 2014/2112 VRB03KT P6SM SCT250
     FM201800 24006KT P6SM SCT035
     FM202300 VRB03KT P6SM SKC=



000
FTUS42 KCAE 201400 AAA
TAFAGS
TAF AMD
KAGS 201425Z 2014/2112 VRB03KT P6SM SCT250
     FM201800 22006KT P6SM FEW035
     FM202300 VRB03KT P6SM SKC
      TEMPO 2110/2112 3SM BR=



000
FTUS42 KCAE 201400 AAA
TAFDNL
TAF AMD
KDNL 201425Z 2014/2112 VRB03KT P6SM SCT250
     FM201800 21005KT P6SM FEW035
     FM202300 VRB03KT P6SM SKC=



000
FTUS42 KCAE 201400 AAA
TAFCUB
TAF AMD
KCUB 201425Z 2014/2112 VRB03KT P6SM SCT250
     FM201800 22005KT P6SM FEW035
     FM202300 VRB03KT P6SM SKC=



000
FTUS42 KCAE 201400 AAA
TAFOGB
TAF AMD
KOGB 201425Z 2014/2112 VRB03KT P6SM SCT250
     FM201800 21005KT P6SM FEW035
     FM202300 VRB03KT P6SM SKC=



000
FTUS42 KCAE 201100
TAFCAE
TAF
KCAE 201120Z 2012/2112 VRB03KT P6SM SCT250
     FM201600 20005KT P6SM FEW035
     FM202300 VRB03KT P6SM SKC=



000
FTUS42 KCAE 201100
TAFDNL
TAF
KDNL 201120Z 2012/2112 VRB03KT P6SM SCT250
     FM201600 20005KT P6SM FEW035
     FM202300 VRB03KT P6SM SKC=



000
FTUS42 KCAE 201100
TAFOGB
TAF
KOGB 201120Z 2012/2112 VRB03KT P6SM SCT250
     FM201600 20005KT P6SM FEW035
     FM202300 VRB03KT P6SM SKC=



000
FTUS42 KCAE 201100
TAFCUB
TAF
KCUB 201120Z 2012/2112 VRB03KT P6SM SCT250
     FM201600 20005KT P6SM FEW035
     FM202300 VRB03KT P6SM SKC=



000
FTUS42 KCAE 201100
TAFAGS
TAF
KAGS 201120Z 2012/2112 VRB03KT P6SM SCT004
      TEMPO 2012/2014 1 1/2SM BR BKN004
     FM201400 20005KT P6SM FEW035
     FM202300 VRB03KT P6SM SKC=



000
FTUS42 KCAE 200800 AAA
TAFOGB
TAF AMD
KOGB 200831Z 2009/2106 VRB03KT P6SM SCT250
     FM201600 20005KT P6SM FEW035
     FM202300 VRB03KT P6SM SKC=



000
FTUS42 KCAE 200800 AAB
TAFAGS
TAF AMD
KAGS 200831Z 2009/2106 00000KT 3SM BR SCT002
      TEMPO 2009/2011 1SM BR BKN002
     FM201200 VRB03KT P6SM SKC
     FM201600 20005KT P6SM FEW035
     FM202300 VRB03KT P6SM SKC=



000
FTUS42 KCAE 200800 AAA
TAFDNL
TAF AMD
KDNL 200831Z 2009/2106 VRB03KT P6SM SCT250
     FM201600 20005KT P6SM FEW035
     FM202300 VRB03KT P6SM SKC=



000
FTUS42 KCAE 200800 AAA
TAFCAE
TAF AMD
KCAE 200831Z 2009/2106 VRB03KT P6SM SCT250
     FM201600 20005KT P6SM FEW035
     FM202300 VRB03KT P6SM SKC=



000
FTUS42 KCAE 200800 AAA
TAFCUB
TAF AMD
KCUB 200831Z 2009/2106 VRB03KT P6SM SCT250
     FM201600 20005KT P6SM FEW035
     FM202300 VRB03KT P6SM SKC=



000
FTUS42 KCAE 200600 AAA
TAFAGS
TAF AMD
KAGS 200652Z 2007/2106 00000KT 3SM BR SCT002
      TEMPO 2008/2011 1SM BR BKN002
     FM201200 VRB03KT P6SM SKC
     FM201700 21005KT P6SM FEW035=



000
FTUS42 KCAE 200500
TAFCAE
TAF
KCAE 200520Z 2006/2106 VRB03KT P6SM SCT250
     FM201700 22005KT P6SM FEW035=



000
FTUS42 KCAE 200500
TAFCUB
TAF
KCUB 200520Z 2006/2106 VRB03KT P6SM SCT250
     FM201700 22005KT P6SM FEW035=



000
FTUS42 KCAE 200500
TAFDNL
TAF
KDNL 200520Z 2006/2106 VRB03KT P6SM SCT250
     FM201700 21005KT P6SM FEW035=



000
FTUS42 KCAE 200500
TAFOGB
TAF
KOGB 200520Z 2006/2106 VRB03KT P6SM SCT250
     FM201700 21005KT P6SM FEW035=



000
FTUS42 KCAE 200500
TAFAGS
TAF
KAGS 200520Z 2006/2106 VRB03KT P6SM SCT250
     FM201700 21005KT P6SM FEW035=



000
FTUS42 KCAE 200200 AAA
TAFAGS
TAF AMD
KAGS 200250Z 2003/2024 VRB03KT P6SM SCT250
     FM201700 21005KT P6SM FEW035=



000
FTUS42 KCAE 200200 AAA
TAFDNL
TAF AMD
KDNL 200250Z 2003/2024 VRB03KT P6SM SCT250
     FM201700 21005KT P6SM FEW035=



000
FTUS42 KCAE 200200 AAA
TAFCUB
TAF AMD
KCUB 200250Z 2003/2024 VRB03KT P6SM SCT250
     FM201700 22005KT P6SM FEW035=



000
FTUS42 KCAE 200200 AAA
TAFOGB
TAF AMD
KOGB 200250Z 2003/2024 VRB03KT P6SM SCT250
     FM201700 21005KT P6SM FEW035=



000
FTUS42 KCAE 200200 AAA
TAFCAE
TAF AMD
KCAE 200250Z 2003/2024 VRB03KT P6SM SCT250
     FM201700 22005KT P6SM FEW035=



000
FTUS42 KCAE 192300
TAFOGB
TAF
KOGB 192328Z 2000/2024 VRB03KT P6SM SCT250
     FM201700 21005KT P6SM FEW035=



000
FTUS42 KCAE 192300
TAFCAE
TAF
KCAE 192328Z 2000/2024 VRB03KT P6SM SCT250
     FM201700 22005KT P6SM FEW035=



000
FTUS42 KCAE 192300
TAFDNL
TAF
KDNL 192328Z 2000/2024 VRB03KT P6SM SCT250
     FM201700 21005KT P6SM FEW035=



000
FTUS42 KCAE 192300
TAFAGS
TAF
KAGS 192328Z 2000/2024 VRB03KT P6SM SCT250
     FM201700 21005KT P6SM FEW035=



000
FTUS42 KCAE 192300
TAFCUB
TAF
KCUB 192328Z 2000/2024 VRB03KT P6SM SCT250
     FM201700 22005KT P6SM FEW035=



000
FTUS42 KCAE 192300
TAFOGB
TAF
KOGB 192328Z 2000/2024 VRB03KT P6SM SCT250
     FM201700 21005KT P6SM FEW035=



000
FTUS42 KCAE 192300
TAFCAE
TAF
KCAE 192328Z 2000/2024 VRB03KT P6SM SCT250
     FM201700 22005KT P6SM FEW035=



000
FTUS42 KCAE 192300
TAFCUB
TAF
KCUB 192328Z 2000/2024 VRB03KT P6SM SCT250
     FM201700 22005KT P6SM FEW035=



000
FTUS42 KCAE 192300
TAFAGS
TAF
KAGS 192328Z 2000/2024 VRB03KT P6SM SCT250
     FM201700 21005KT P6SM FEW035=



000
FTUS42 KCAE 192300
TAFDNL
TAF
KDNL 192328Z 2000/2024 VRB03KT P6SM SCT250
     FM201700 21005KT P6SM FEW035=



000
FTUS42 KCAE 192000 AAA
TAFOGB
TAF AMD
KOGB 192040Z 1921/2018 VRB03KT P6SM FEW250
     FM201500 23005KT P6SM SCT035=



000
FTUS42 KCAE 192000 AAA
TAFCAE
TAF AMD
KCAE 192040Z 1921/2018 VRB04KT P6SM FEW250
     FM201500 23005KT P6SM SCT035=



000
FTUS42 KCAE 192000 AAA
TAFAGS
TAF AMD
KAGS 192040Z 1921/2018 VRB04KT P6SM SCT250
     FM201500 23005KT P6SM SCT035=



000
FTUS42 KCAE 192000 AAA
TAFDNL
TAF AMD
KDNL 192040Z 1921/2018 VRB03KT P6SM SCT250
     FM201500 23005KT P6SM SCT035=



000
FTUS42 KCAE 192000 AAA
TAFCUB
TAF AMD
KCUB 192040Z 1921/2018 VRB03KT P6SM FEW250
     FM201500 23005KT P6SM SCT035=



000
FTUS42 KCAE 191700
TAFAGS
TAF
KAGS 191722Z 1918/2018 02006KT P6SM SCT250
     FM192300 VRB03KT P6SM FEW250
     FM201500 23005KT P6SM SCT035=



000
FTUS42 KCAE 191700
TAFCUB
TAF
KCUB 191722Z 1918/2018 02005KT P6SM SCT250
     FM192300 VRB03KT P6SM FEW250
     FM201500 23005KT P6SM SCT035=



000
FTUS42 KCAE 191700
TAFDNL
TAF
KDNL 191722Z 1918/2018 02006KT P6SM SCT250
     FM192300 VRB03KT P6SM FEW250
     FM201500 23005KT P6SM SCT035=



000
FTUS42 KCAE 191700
TAFCAE
TAF
KCAE 191722Z 1918/2018 02006KT P6SM SCT250
     FM192300 VRB03KT P6SM FEW250
     FM201500 23005KT P6SM SCT035=



000
FTUS42 KCAE 191700
TAFOGB
TAF
KOGB 191722Z 1918/2018 02008KT P6SM SCT250
     FM192300 VRB03KT P6SM FEW250
     FM201500 23005KT P6SM SCT035=



    US Dept of Commerce
    National Oceanic and Atmospheric Administration
    National Weather Service
    1325 East West Highway
    Silver Spring, MD 20910
    Page Author: NWS Internet Services Team
Disclaimer
Information Quality
Credits
Glossary
Privacy Policy
Freedom of Information Act (FOIA)
About Us
Career Opportunities